TVS52J LSZH-EDDB
Flight info
| Callsign | TVS52J |
|---|---|
| Flight time | 1h 31m |
| Altitude | 43000 |
| Route | DEGES Z1 ETAGO/N0452F400 DCT TIKNI/N0452F410 T279 TAMEB T278 KLF KLF1R |
| Aircraft | C700/M-SBDGHM1RWXY/LB2 |
Departure
| Time | 2026-04-30 20:20 |
|---|---|
| Airport | Zürich Airport (LSZH) |
Arrival
| Time | 2026-04-30 21:51 |
|---|---|
| Airport | Berlin Brandenburg Airport (EDDB) |
| Time | Latitude | Longitude | Altitude | Speed | Heading |
|---|---|---|---|---|---|
| 2026-04-30 19:41 | 47.45537 | 8.56587 | 1400 ft | 0 kts | 321° |
| 2026-04-30 20:11 | 47.45547 | 8.56576 | 1400 ft | 2 kts | 329° |
| 2026-04-30 20:11 | 47.45581 | 8.56553 | 1393 ft | 7 kts | 314° |
| 2026-04-30 20:11 | 47.45595 | 8.56472 | 1393 ft | 10 kts | 276° |
| 2026-04-30 20:12 | 47.45609 | 8.56296 | 1392 ft | 6 kts | 291° |
| 2026-04-30 20:12 | 47.45645 | 8.56269 | 1399 ft | 6 kts | 2° |
| 2026-04-30 20:12 | 47.45680 | 8.56272 | 1396 ft | 5 kts | 4° |
| 2026-04-30 20:13 | 47.45748 | 8.56283 | 1397 ft | 13 kts | 7° |
| 2026-04-30 20:13 | 47.45862 | 8.56304 | 1392 ft | 19 kts | 6° |
| 2026-04-30 20:13 | 47.45999 | 8.56324 | 1393 ft | 20 kts | 5° |
| 2026-04-30 20:13 | 47.46020 | 8.56327 | 1393 ft | 0 kts | 6° |
| 2026-04-30 20:18 | 47.46027 | 8.56328 | 1394 ft | 4 kts | 6° |
| 2026-04-30 20:19 | 47.46057 | 8.56333 | 1395 ft | 6 kts | 6° |
| 2026-04-30 20:19 | 47.46097 | 8.56339 | 1399 ft | 10 kts | 5° |
| 2026-04-30 20:19 | 47.46229 | 8.56309 | 1405 ft | 20 kts | 322° |
| 2026-04-30 20:19 | 47.46417 | 8.56058 | 1397 ft | 74 kts | 318° |
| 2026-04-30 20:20 | 47.46778 | 8.55580 | 1409 ft | 134 kts | 324° |
| 2026-04-30 20:20 | 47.47533 | 8.54478 | 2181 ft | 159 kts | 316° |
| 2026-04-30 20:20 | 47.48805 | 8.52951 | 3426 ft | 196 kts | 329° |
| 2026-04-30 20:20 | 47.49573 | 8.52109 | 4102 ft | 211 kts | 330° |
| 2026-04-30 20:21 | 47.51354 | 8.50395 | 5120 ft | 254 kts | 332° |
| 2026-04-30 20:21 | 47.52787 | 8.48824 | 4998 ft | 259 kts | 310° |
| 2026-04-30 20:21 | 47.53342 | 8.47251 | 4999 ft | 252 kts | 290° |
| 2026-04-30 20:21 | 47.53558 | 8.44763 | 4981 ft | 239 kts | 263° |
| 2026-04-30 20:22 | 47.53091 | 8.42472 | 5015 ft | 230 kts | 242° |
| 2026-04-30 20:22 | 47.52361 | 8.40369 | 5027 ft | 235 kts | 241° |
| 2026-04-30 20:22 | 47.51458 | 8.38321 | 5198 ft | 244 kts | 218° |
| 2026-04-30 20:22 | 47.49966 | 8.37523 | 6896 ft | 225 kts | 184° |
| 2026-04-30 20:23 | 47.48300 | 8.37818 | 7411 ft | 258 kts | 156° |
| 2026-04-30 20:23 | 47.46934 | 8.39447 | 7285 ft | 251 kts | 124° |
| 2026-04-30 20:23 | 47.46123 | 8.41663 | 7169 ft | 239 kts | 112° |
| 2026-04-30 20:23 | 47.45669 | 8.43969 | 7031 ft | 230 kts | 99° |
| 2026-04-30 20:24 | 47.45576 | 8.46332 | 7040 ft | 232 kts | 88° |
| 2026-04-30 20:24 | 47.45691 | 8.48789 | 7171 ft | 253 kts | 86° |
| 2026-04-30 20:24 | 47.45760 | 8.51476 | 7267 ft | 273 kts | 90° |
| 2026-04-30 20:24 | 47.45733 | 8.54310 | 7272 ft | 276 kts | 91° |
| 2026-04-30 20:25 | 47.45913 | 8.59907 | 7268 ft | 270 kts | 87° |
| 2026-04-30 20:25 | 47.46007 | 8.62673 | 7263 ft | 270 kts | 87° |
| 2026-04-30 20:26 | 47.46208 | 8.68249 | 8897 ft | 267 kts | 87° |
| 2026-04-30 20:26 | 47.46424 | 8.74033 | 11637 ft | 304 kts | 86° |
| 2026-04-30 20:26 | 47.46543 | 8.77244 | 12252 ft | 321 kts | 86° |
| 2026-04-30 20:27 | 47.46516 | 8.83681 | 13258 ft | 313 kts | 98° |
| 2026-04-30 20:27 | 47.45587 | 8.90020 | 14286 ft | 319 kts | 100° |
| 2026-04-30 20:28 | 47.44671 | 8.96498 | 15242 ft | 323 kts | 99° |
| 2026-04-30 20:28 | 47.43734 | 9.03036 | 16218 ft | 327 kts | 99° |
| 2026-04-30 20:29 | 47.42789 | 9.09583 | 17218 ft | 330 kts | 99° |
| 2026-04-30 20:30 | 47.42108 | 9.19707 | 18762 ft | 332 kts | 79° |
| 2026-04-30 20:30 | 47.44711 | 9.29097 | 20193 ft | 337 kts | 59° |
| 2026-04-30 20:31 | 47.49359 | 9.38528 | 20270 ft | 403 kts | 42° |
| 2026-04-30 20:32 | 47.56723 | 9.44131 | 20255 ft | 401 kts | 19° |
| 2026-04-30 20:32 | 47.62133 | 9.45317 | 20855 ft | 373 kts | 4° |
| 2026-04-30 20:33 | 47.64632 | 9.45437 | 21338 ft | 348 kts | 5° |
| 2026-04-30 20:33 | 47.69424 | 9.45718 | 22356 ft | 350 kts | 5° |
| 2026-04-30 20:33 | 47.71884 | 9.45848 | 22900 ft | 355 kts | 5° |
| 2026-04-30 20:34 | 47.76863 | 9.46109 | 23970 ft | 360 kts | 5° |
| 2026-04-30 20:34 | 47.81864 | 9.46281 | 24897 ft | 362 kts | 2° |
| 2026-04-30 20:35 | 47.84398 | 9.46263 | 25370 ft | 365 kts | 3° |
| 2026-04-30 20:35 | 47.86951 | 9.46259 | 25859 ft | 370 kts | 3° |
| 2026-04-30 20:35 | 47.92150 | 9.46254 | 26872 ft | 376 kts | 4° |
| 2026-04-30 20:36 | 47.94776 | 9.46244 | 27389 ft | 378 kts | 4° |
| 2026-04-30 20:36 | 47.97415 | 9.46238 | 27914 ft | 379 kts | 4° |
| 2026-04-30 20:36 | 48.02687 | 9.46228 | 28992 ft | 384 kts | 4° |
| 2026-04-30 20:37 | 48.05387 | 9.46222 | 29552 ft | 389 kts | 4° |
| 2026-04-30 20:37 | 48.08111 | 9.46216 | 30125 ft | 393 kts | 4° |
| 2026-04-30 20:37 | 48.10865 | 9.46209 | 30656 ft | 397 kts | 4° |
| 2026-04-30 20:37 | 48.13633 | 9.46201 | 31147 ft | 399 kts | 4° |
| 2026-04-30 20:38 | 48.16419 | 9.46193 | 31649 ft | 399 kts | 4° |
| 2026-04-30 20:38 | 48.19164 | 9.45693 | 32132 ft | 409 kts | 349° |
| 2026-04-30 20:38 | 48.21793 | 9.43890 | 32608 ft | 423 kts | 332° |
| 2026-04-30 20:39 | 48.25465 | 9.36743 | 33655 ft | 456 kts | 293° |
| 2026-04-30 20:39 | 48.25958 | 9.31983 | 34192 ft | 469 kts | 272° |
| 2026-04-30 20:39 | 48.25359 | 9.27163 | 34680 ft | 472 kts | 252° |
| 2026-04-30 20:40 | 48.21502 | 9.19457 | 35623 ft | 470 kts | 215° |
| 2026-04-30 20:40 | 48.18598 | 9.17263 | 36121 ft | 467 kts | 195° |
| 2026-04-30 20:40 | 48.15422 | 9.16511 | 36628 ft | 460 kts | 176° |
| 2026-04-30 20:41 | 48.09585 | 9.19365 | 37684 ft | 435 kts | 138° |
| 2026-04-30 20:41 | 48.07542 | 9.22575 | 38227 ft | 419 kts | 118° |
| 2026-04-30 20:41 | 48.06390 | 9.26463 | 38806 ft | 403 kts | 98° |
| 2026-04-30 20:41 | 48.06229 | 9.30542 | 39288 ft | 388 kts | 78° |
| 2026-04-30 20:42 | 48.07029 | 9.34253 | 39751 ft | 375 kts | 58° |
| 2026-04-30 20:42 | 48.08675 | 9.37195 | 40229 ft | 366 kts | 37° |
| 2026-04-30 20:42 | 48.13378 | 9.39195 | 41229 ft | 358 kts | 354° |
| 2026-04-30 20:43 | 48.15817 | 9.38642 | 41732 ft | 349 kts | 2° |
| 2026-04-30 20:43 | 48.18140 | 9.39394 | 42264 ft | 340 kts | 25° |
| 2026-04-30 20:43 | 48.20087 | 9.41274 | 42820 ft | 334 kts | 37° |
| 2026-04-30 20:44 | 48.23530 | 9.45908 | 43321 ft | 337 kts | 34° |
| 2026-04-30 20:44 | 48.25665 | 9.47305 | 43346 ft | 339 kts | 7° |
| 2026-04-30 20:44 | 48.30462 | 9.46698 | 43335 ft | 354 kts | 352° |
| 2026-04-30 20:45 | 48.35461 | 9.46001 | 43331 ft | 368 kts | 1° |
| 2026-04-30 20:45 | 48.40674 | 9.46306 | 43327 ft | 381 kts | 1° |
| 2026-04-30 20:46 | 48.48810 | 9.46196 | 43332 ft | 400 kts | 1° |
| 2026-04-30 20:46 | 48.51615 | 9.46240 | 43330 ft | 406 kts | 1° |
| 2026-04-30 20:47 | 48.57357 | 9.46218 | 43325 ft | 417 kts | 0° |
| 2026-04-30 20:47 | 48.60247 | 9.46218 | 43325 ft | 422 kts | 0° |
| 2026-04-30 20:48 | 48.69232 | 9.46234 | 43332 ft | 437 kts | 0° |
| 2026-04-30 20:48 | 48.75383 | 9.46240 | 43330 ft | 446 kts | 0° |
| 2026-04-30 20:49 | 48.81647 | 9.46245 | 43330 ft | 453 kts | 0° |
| 2026-04-30 20:50 | 48.91083 | 9.46252 | 43335 ft | 450 kts | 0° |
| 2026-04-30 20:50 | 48.97325 | 9.46257 | 43339 ft | 447 kts | 0° |
| 2026-04-30 20:51 | 49.03532 | 9.46262 | 43335 ft | 446 kts | 0° |
| 2026-04-30 20:51 | 49.12858 | 9.46269 | 43342 ft | 450 kts | 0° |
| 2026-04-30 20:52 | 49.19157 | 9.46273 | 43352 ft | 452 kts | 1° |
| 2026-04-30 20:53 | 49.28593 | 9.46281 | 43344 ft | 450 kts | 1° |
| 2026-04-30 20:53 | 49.34816 | 9.46286 | 43343 ft | 448 kts | 1° |
| 2026-04-30 20:54 | 49.44144 | 9.46434 | 43334 ft | 446 kts | 7° |
| 2026-04-30 20:55 | 49.53093 | 9.50358 | 43354 ft | 447 kts | 19° |
| 2026-04-30 20:55 | 49.59155 | 9.52644 | 43359 ft | 449 kts | 11° |
| 2026-04-30 20:56 | 49.68176 | 9.56250 | 43358 ft | 448 kts | 17° |
| 2026-04-30 20:57 | 49.77230 | 9.59971 | 43360 ft | 447 kts | 15° |
| 2026-04-30 20:57 | 49.83173 | 9.62574 | 43359 ft | 446 kts | 15° |
| 2026-04-30 20:58 | 49.92132 | 9.66336 | 43363 ft | 444 kts | 16° |
| 2026-04-30 20:58 | 49.98104 | 9.68891 | 43363 ft | 443 kts | 15° |
| 2026-04-30 20:59 | 50.07041 | 9.72706 | 43375 ft | 444 kts | 16° |
| 2026-04-30 21:00 | 50.18934 | 9.77807 | 43384 ft | 444 kts | 16° |
| 2026-04-30 21:01 | 50.27891 | 9.81667 | 43385 ft | 445 kts | 16° |
| 2026-04-30 21:02 | 50.36792 | 9.85641 | 43389 ft | 444 kts | 20° |
| 2026-04-30 21:02 | 50.42225 | 9.90238 | 43396 ft | 444 kts | 36° |
| 2026-04-30 21:03 | 50.46729 | 9.96881 | 43410 ft | 445 kts | 45° |
| 2026-04-30 21:03 | 50.50968 | 10.03916 | 43410 ft | 444 kts | 45° |
| 2026-04-30 21:04 | 50.55121 | 10.10852 | 43406 ft | 422 kts | 45° |
| 2026-04-30 21:04 | 50.57083 | 10.14133 | 43405 ft | 410 kts | 45° |
| 2026-04-30 21:04 | 50.60919 | 10.20544 | 43403 ft | 398 kts | 45° |
| 2026-04-30 21:05 | 50.64712 | 10.27023 | 43410 ft | 407 kts | 50° |
| 2026-04-30 21:05 | 50.67237 | 10.33400 | 43422 ft | 418 kts | 59° |
| 2026-04-30 21:06 | 50.70463 | 10.42779 | 43426 ft | 413 kts | 59° |
| 2026-04-30 21:06 | 50.71815 | 10.46716 | 43415 ft | 400 kts | 59° |
| 2026-04-30 21:06 | 50.73112 | 10.50515 | 43409 ft | 385 kts | 59° |
| 2026-04-30 21:07 | 50.75163 | 10.56513 | 43415 ft | 362 kts | 59° |
| 2026-04-30 21:07 | 50.77513 | 10.63394 | 43412 ft | 352 kts | 59° |
| 2026-04-30 21:08 | 50.79860 | 10.70288 | 43436 ft | 364 kts | 59° |
| 2026-04-30 21:08 | 50.82299 | 10.77480 | 43439 ft | 377 kts | 59° |
| 2026-04-30 21:09 | 50.84780 | 10.84818 | 43437 ft | 381 kts | 59° |
| 2026-04-30 21:09 | 50.87259 | 10.92171 | 43422 ft | 375 kts | 59° |
| 2026-04-30 21:10 | 50.89693 | 10.99408 | 43419 ft | 369 kts | 59° |
| 2026-04-30 21:10 | 50.92107 | 11.06605 | 43420 ft | 371 kts | 59° |
| 2026-04-30 21:11 | 50.94525 | 11.13837 | 43432 ft | 375 kts | 59° |
| 2026-04-30 21:11 | 50.96962 | 11.21147 | 43435 ft | 378 kts | 59° |
| 2026-04-30 21:12 | 50.99415 | 11.28530 | 43440 ft | 376 kts | 59° |
| 2026-04-30 21:12 | 51.01828 | 11.35803 | 43433 ft | 373 kts | 59° |
| 2026-04-30 21:13 | 51.04250 | 11.43125 | 43149 ft | 379 kts | 59° |
| 2026-04-30 21:13 | 51.05484 | 11.46864 | 42840 ft | 384 kts | 59° |
| 2026-04-30 21:13 | 51.06723 | 11.50632 | 42519 ft | 383 kts | 59° |
| 2026-04-30 21:14 | 51.07951 | 11.54376 | 42198 ft | 380 kts | 59° |
| 2026-04-30 21:14 | 51.09170 | 11.58094 | 41883 ft | 375 kts | 59° |
| 2026-04-30 21:14 | 51.10348 | 11.61693 | 41576 ft | 368 kts | 59° |
| 2026-04-30 21:14 | 51.11520 | 11.65276 | 41283 ft | 360 kts | 59° |
| 2026-04-30 21:15 | 51.12666 | 11.68787 | 40982 ft | 353 kts | 59° |
| 2026-04-30 21:15 | 51.13787 | 11.72228 | 40692 ft | 346 kts | 59° |
| 2026-04-30 21:15 | 51.14884 | 11.75603 | 40405 ft | 340 kts | 59° |
| 2026-04-30 21:15 | 51.15951 | 11.78890 | 40129 ft | 335 kts | 59° |
| 2026-04-30 21:16 | 51.17015 | 11.82166 | 39854 ft | 331 kts | 59° |
| 2026-04-30 21:16 | 51.18069 | 11.85419 | 39585 ft | 329 kts | 59° |
| 2026-04-30 21:16 | 51.19115 | 11.88654 | 39317 ft | 327 kts | 59° |
| 2026-04-30 21:16 | 51.20154 | 11.91867 | 39027 ft | 325 kts | 59° |
| 2026-04-30 21:17 | 51.21346 | 11.94894 | 38731 ft | 321 kts | 51° |
| 2026-04-30 21:17 | 51.22802 | 11.97599 | 38488 ft | 319 kts | 44° |
| 2026-04-30 21:17 | 51.24343 | 12.00150 | 38210 ft | 319 kts | 45° |
| 2026-04-30 21:17 | 51.25850 | 12.02700 | 37939 ft | 318 kts | 45° |
| 2026-04-30 21:18 | 51.27367 | 12.05264 | 37673 ft | 317 kts | 45° |
| 2026-04-30 21:18 | 51.28883 | 12.07808 | 37410 ft | 315 kts | 45° |
| 2026-04-30 21:18 | 51.30392 | 12.10345 | 37149 ft | 314 kts | 45° |
| 2026-04-30 21:18 | 51.31890 | 12.12871 | 36889 ft | 312 kts | 45° |
| 2026-04-30 21:19 | 51.33384 | 12.15395 | 36635 ft | 311 kts | 45° |
| 2026-04-30 21:19 | 51.34849 | 12.17871 | 36384 ft | 310 kts | 45° |
| 2026-04-30 21:19 | 51.36326 | 12.20368 | 36121 ft | 308 kts | 45° |
| 2026-04-30 21:19 | 51.37800 | 12.22863 | 35872 ft | 307 kts | 45° |
| 2026-04-30 21:20 | 51.39261 | 12.25339 | 35620 ft | 306 kts | 45° |
| 2026-04-30 21:20 | 51.40722 | 12.27817 | 35365 ft | 305 kts | 45° |
| 2026-04-30 21:20 | 51.42177 | 12.30288 | 35114 ft | 304 kts | 45° |
| 2026-04-30 21:20 | 51.43626 | 12.32750 | 34865 ft | 303 kts | 45° |
| 2026-04-30 21:21 | 51.45059 | 12.35189 | 34617 ft | 303 kts | 45° |
| 2026-04-30 21:21 | 51.46504 | 12.37649 | 34358 ft | 302 kts | 45° |
| 2026-04-30 21:21 | 51.49368 | 12.42534 | 33834 ft | 298 kts | 45° |
| 2026-04-30 21:22 | 51.50782 | 12.44949 | 33589 ft | 295 kts | 45° |
| 2026-04-30 21:22 | 51.54938 | 12.52061 | 32861 ft | 289 kts | 45° |
| 2026-04-30 21:23 | 51.56310 | 12.54412 | 32636 ft | 287 kts | 45° |
| 2026-04-30 21:23 | 51.57675 | 12.56755 | 32392 ft | 286 kts | 45° |
| 2026-04-30 21:23 | 51.60379 | 12.61402 | 31922 ft | 283 kts | 45° |
| 2026-04-30 21:24 | 51.61705 | 12.63685 | 31686 ft | 282 kts | 45° |
| 2026-04-30 21:24 | 51.63042 | 12.65987 | 31471 ft | 281 kts | 45° |
| 2026-04-30 21:24 | 51.64376 | 12.68287 | 31229 ft | 279 kts | 45° |
| 2026-04-30 21:24 | 51.65697 | 12.70568 | 30995 ft | 279 kts | 45° |
| 2026-04-30 21:25 | 51.68460 | 12.75336 | 30529 ft | 305 kts | 45° |
| 2026-04-30 21:25 | 51.69928 | 12.77880 | 30252 ft | 310 kts | 45° |
| 2026-04-30 21:25 | 51.71378 | 12.80395 | 29977 ft | 308 kts | 45° |
| 2026-04-30 21:26 | 51.74262 | 12.85399 | 29454 ft | 299 kts | 45° |
| 2026-04-30 21:26 | 51.75673 | 12.87851 | 29033 ft | 298 kts | 45° |
| 2026-04-30 21:27 | 51.78394 | 12.93082 | 27554 ft | 307 kts | 55° |
| 2026-04-30 21:27 | 51.79483 | 12.96002 | 26816 ft | 307 kts | 56° |
| 2026-04-30 21:27 | 51.80594 | 12.98958 | 26073 ft | 308 kts | 56° |
| 2026-04-30 21:28 | 51.82827 | 13.04878 | 24568 ft | 309 kts | 56° |
| 2026-04-30 21:28 | 51.83941 | 13.07855 | 23783 ft | 309 kts | 57° |
| 2026-04-30 21:28 | 51.86145 | 13.13747 | 22290 ft | 302 kts | 57° |
| 2026-04-30 21:29 | 51.87215 | 13.16610 | 21564 ft | 299 kts | 57° |
| 2026-04-30 21:29 | 51.90364 | 13.25060 | 20082 ft | 273 kts | 57° |
| 2026-04-30 21:30 | 51.92234 | 13.30089 | 19541 ft | 252 kts | 57° |
| 2026-04-30 21:31 | 51.94861 | 13.37167 | 18723 ft | 241 kts | 57° |
| 2026-04-30 21:31 | 51.96594 | 13.41848 | 18152 ft | 245 kts | 57° |
| 2026-04-30 21:32 | 51.98361 | 13.46629 | 17591 ft | 247 kts | 57° |
| 2026-04-30 21:32 | 51.99475 | 13.48704 | 17300 ft | 245 kts | 39° |
| 2026-04-30 21:32 | 52.00959 | 13.49981 | 17037 ft | 247 kts | 21° |
| 2026-04-30 21:32 | 52.02675 | 13.50336 | 16759 ft | 254 kts | 3° |
| 2026-04-30 21:33 | 52.04422 | 13.49616 | 16479 ft | 265 kts | 342° |
| 2026-04-30 21:33 | 52.07137 | 13.45264 | 15884 ft | 283 kts | 314° |
| 2026-04-30 21:33 | 52.08311 | 13.42666 | 15563 ft | 284 kts | 314° |
| 2026-04-30 21:34 | 52.09481 | 13.40122 | 15249 ft | 283 kts | 314° |
| 2026-04-30 21:34 | 52.11850 | 13.35037 | 14605 ft | 280 kts | 314° |
| 2026-04-30 21:34 | 52.13018 | 13.32513 | 14297 ft | 279 kts | 313° |
| 2026-04-30 21:35 | 52.14183 | 13.29994 | 13962 ft | 278 kts | 313° |
| 2026-04-30 21:35 | 52.15342 | 13.27485 | 13636 ft | 276 kts | 313° |
| 2026-04-30 21:35 | 52.16492 | 13.24984 | 13332 ft | 275 kts | 312° |
| 2026-04-30 21:35 | 52.17398 | 13.22250 | 13020 ft | 282 kts | 297° |
| 2026-04-30 21:36 | 52.17890 | 13.19138 | 12704 ft | 287 kts | 282° |
| 2026-04-30 21:36 | 52.17902 | 13.15871 | 12428 ft | 289 kts | 266° |
| 2026-04-30 21:37 | 52.15961 | 13.06704 | 12359 ft | 294 kts | 250° |
| 2026-04-30 21:37 | 52.15199 | 13.03536 | 12015 ft | 304 kts | 250° |
| 2026-04-30 21:37 | 52.14419 | 13.00334 | 11603 ft | 302 kts | 250° |
| 2026-04-30 21:37 | 52.13644 | 12.97167 | 11194 ft | 298 kts | 250° |
| 2026-04-30 21:38 | 52.12883 | 12.94044 | 10785 ft | 295 kts | 250° |
| 2026-04-30 21:38 | 52.12129 | 12.90954 | 10387 ft | 292 kts | 250° |
| 2026-04-30 21:38 | 52.11382 | 12.87892 | 9966 ft | 289 kts | 250° |
| 2026-04-30 21:38 | 52.10643 | 12.84878 | 9569 ft | 285 kts | 249° |
| 2026-04-30 21:39 | 52.09922 | 12.81938 | 9184 ft | 281 kts | 249° |
| 2026-04-30 21:39 | 52.09202 | 12.79003 | 8811 ft | 278 kts | 249° |
| 2026-04-30 21:39 | 52.08593 | 12.76064 | 8423 ft | 273 kts | 262° |
| 2026-04-30 21:39 | 52.08576 | 12.73014 | 8056 ft | 266 kts | 281° |
| 2026-04-30 21:40 | 52.09119 | 12.70198 | 7698 ft | 258 kts | 300° |
| 2026-04-30 21:40 | 52.10132 | 12.67850 | 7348 ft | 250 kts | 317° |
| 2026-04-30 21:40 | 52.11464 | 12.66161 | 7010 ft | 243 kts | 334° |
| 2026-04-30 21:40 | 52.13016 | 12.65175 | 6666 ft | 236 kts | 350° |
| 2026-04-30 21:41 | 52.14618 | 12.65017 | 6421 ft | 225 kts | 13° |
| 2026-04-30 21:41 | 52.15973 | 12.66087 | 6423 ft | 215 kts | 37° |
| 2026-04-30 21:41 | 52.17165 | 12.67623 | 6432 ft | 222 kts | 41° |
| 2026-04-30 21:41 | 52.18110 | 12.69595 | 6432 ft | 228 kts | 61° |
| 2026-04-30 21:42 | 52.18800 | 12.71941 | 6436 ft | 230 kts | 65° |
| 2026-04-30 21:42 | 52.19452 | 12.74308 | 6417 ft | 229 kts | 65° |
| 2026-04-30 21:42 | 52.20101 | 12.76688 | 6325 ft | 228 kts | 65° |
| 2026-04-30 21:42 | 52.20742 | 12.79040 | 6265 ft | 226 kts | 66° |
| 2026-04-30 21:43 | 52.21380 | 12.81390 | 6180 ft | 225 kts | 67° |
| 2026-04-30 21:43 | 52.21652 | 12.83019 | 6109 ft | 227 kts | 80° |
| 2026-04-30 21:43 | 52.21960 | 12.86402 | 5983 ft | 228 kts | 76° |
| 2026-04-30 21:43 | 52.22455 | 12.88871 | 5866 ft | 229 kts | 68° |
| 2026-04-30 21:44 | 52.23081 | 12.91263 | 5753 ft | 229 kts | 66° |
| 2026-04-30 21:44 | 52.23685 | 12.93674 | 5635 ft | 229 kts | 68° |
| 2026-04-30 21:44 | 52.24272 | 12.96094 | 5510 ft | 229 kts | 68° |
| 2026-04-30 21:44 | 52.24871 | 12.98506 | 5393 ft | 229 kts | 67° |
| 2026-04-30 21:45 | 52.25442 | 13.00898 | 5280 ft | 229 kts | 69° |
| 2026-04-30 21:45 | 52.26015 | 13.03326 | 5150 ft | 229 kts | 68° |
| 2026-04-30 21:45 | 52.26607 | 13.05770 | 5031 ft | 229 kts | 69° |
| 2026-04-30 21:45 | 52.27175 | 13.08199 | 4911 ft | 229 kts | 68° |
| 2026-04-30 21:46 | 52.27752 | 13.10571 | 4752 ft | 225 kts | 68° |
| 2026-04-30 21:46 | 52.28312 | 13.12968 | 4425 ft | 225 kts | 68° |
| 2026-04-30 21:46 | 52.28879 | 13.15305 | 4329 ft | 221 kts | 68° |
| 2026-04-30 21:46 | 52.29437 | 13.17688 | 4114 ft | 229 kts | 68° |
| 2026-04-30 21:47 | 52.30027 | 13.20135 | 3823 ft | 233 kts | 68° |
| 2026-04-30 21:47 | 52.30610 | 13.22611 | 3502 ft | 232 kts | 68° |
| 2026-04-30 21:47 | 52.31196 | 13.25058 | 3184 ft | 229 kts | 67° |
| 2026-04-30 21:47 | 52.31771 | 13.27478 | 2870 ft | 224 kts | 68° |
| 2026-04-30 21:48 | 52.32320 | 13.29796 | 2561 ft | 213 kts | 67° |
| 2026-04-30 21:48 | 52.32850 | 13.32006 | 2287 ft | 205 kts | 68° |
| 2026-04-30 21:48 | 52.33353 | 13.34148 | 2012 ft | 199 kts | 67° |
| 2026-04-30 21:48 | 52.33855 | 13.36227 | 1743 ft | 196 kts | 67° |
| 2026-04-30 21:49 | 52.34337 | 13.38274 | 1483 ft | 195 kts | 67° |
| 2026-04-30 21:49 | 52.34825 | 13.40338 | 1252 ft | 188 kts | 67° |
| 2026-04-30 21:49 | 52.35260 | 13.42174 | 999 ft | 157 kts | 66° |
| 2026-04-30 21:49 | 52.35612 | 13.43642 | 797 ft | 130 kts | 67° |
| 2026-04-30 21:50 | 52.35931 | 13.44976 | 636 ft | 124 kts | 68° |
| 2026-04-30 21:50 | 52.36248 | 13.46285 | 488 ft | 123 kts | 66° |
| 2026-04-30 21:50 | 52.36571 | 13.47583 | 357 ft | 121 kts | 70° |
| 2026-04-30 21:50 | 52.36849 | 13.48818 | 171 ft | 109 kts | 68° |
| 2026-04-30 21:51 | 52.37090 | 13.49797 | 149 ft | 74 kts | 69° |
| 2026-04-30 21:51 | 52.37221 | 13.50392 | 149 ft | 45 kts | 70° |
| 2026-04-30 21:51 | 52.37301 | 13.50780 | 149 ft | 28 kts | 81° |
| 2026-04-30 21:51 | 52.37295 | 13.51109 | 149 ft | 30 kts | 98° |
| 2026-04-30 21:52 | 52.37281 | 13.51246 | 149 ft | 7 kts | 100° |
| 2026-04-30 21:52 | 52.37271 | 13.51338 | 149 ft | 0 kts | 100° |
| 2026-04-30 21:52 | 52.37270 | 13.51347 | 149 ft | 4 kts | 100° |
| 2026-04-30 21:53 | 52.37261 | 13.51452 | 149 ft | 14 kts | 97° |
| 2026-04-30 21:53 | 52.37236 | 13.51469 | 149 ft | 6 kts | 236° |
| 2026-04-30 21:53 | 52.37183 | 13.51430 | 149 ft | 8 kts | 166° |
| 2026-04-30 21:53 | 52.37102 | 13.51481 | 149 ft | 11 kts | 162° |
| 2026-04-30 21:54 | 52.37044 | 13.51454 | 149 ft | 3 kts | 226° |
| 2026-04-30 21:54 | 52.37019 | 13.51454 | 149 ft | 9 kts | 161° |
| 2026-04-30 21:54 | 52.36963 | 13.51489 | 149 ft | 2 kts | 160° |
| 2026-04-30 21:54 | 52.36960 | 13.51491 | 149 ft | 0 kts | 160° |